sensor_id;sensor_type;location;lat;lon;timestamp;pressure;altitude;pressure_sealevel;temperature;humidity
46464;BME280;32161;48.148;-1.554;2022-12-20T00:01:15;100567.50;;;11.75;100.00
46464;BME280;32161;48.148;-1.554;2022-12-20T00:03:43;100568.84;;;11.72;100.00
46464;BME280;32161;48.148;-1.554;2022-12-20T00:06:12;100573.50;;;11.48;100.00
46464;BME280;32161;48.148;-1.554;2022-12-20T00:08:40;100570.22;;;11.46;100.00
46464;BME280;32161;48.148;-1.554;2022-12-20T00:11:08;100567.53;;;11.35;100.00
46464;BME280;32161;48.148;-1.554;2022-12-20T00:13:37;100565.63;;;11.35;100.00
46464;BME280;32161;48.148;-1.554;2022-12-20T00:16:07;100555.06;;;11.51;100.00
46464;BME280;32161;48.148;-1.554;2022-12-20T00:18:36;100548.88;;;11.55;100.00
46464;BME280;32161;48.148;-1.554;2022-12-20T00:21:06;100550.09;;;11.47;100.00
46464;BME280;32161;48.148;-1.554;2022-12-20T00:23:36;100554.63;;;11.42;100.00
46464;BME280;32161;48.148;-1.554;2022-12-20T00:26:06;100562.88;;;11.47;100.00
46464;BME280;32161;48.148;-1.554;2022-12-20T00:28:35;100556.84;;;11.45;100.00
46464;BME280;32161;48.148;-1.554;2022-12-20T00:31:05;100544.38;;;11.61;100.00
46464;BME280;32161;48.148;-1.554;2022-12-20T00:33:35;100546.06;;;11.50;100.00
46464;BME280;32161;48.148;-1.554;2022-12-20T00:36:05;100540.16;;;11.53;100.00
46464;BME280;32161;48.148;-1.554;2022-12-20T00:38:33;100536.91;;;11.56;100.00
46464;BME280;32161;48.148;-1.554;2022-12-20T00:41:02;100544.88;;;11.58;100.00
46464;BME280;32161;48.148;-1.554;2022-12-20T00:43:31;100544.38;;;11.61;100.00
46464;BME280;32161;48.148;-1.554;2022-12-20T00:46:00;100530.78;;;11.49;100.00
46464;BME280;32161;48.148;-1.554;2022-12-20T00:48:30;100528.06;;;11.61;100.00
46464;BME280;32161;48.148;-1.554;2022-12-20T00:50:58;100527.53;;;11.64;100.00
46464;BME280;32161;48.148;-1.554;2022-12-20T00:53:27;100528.66;;;11.51;100.00
46464;BME280;32161;48.148;-1.554;2022-12-20T00:55:56;100530.38;;;11.69;100.00
46464;BME280;32161;48.148;-1.554;2022-12-20T00:58:24;100528.72;;;11.68;100.00
46464;BME280;32161;48.148;-1.554;2022-12-20T01:00:51;100524.81;;;11.35;100.00
46464;BME280;32161;48.148;-1.554;2022-12-20T01:03:20;100524.13;;;11.57;100.00
46464;BME280;32161;48.148;-1.554;2022-12-20T01:05:54;100524.59;;;11.65;100.00
46464;BME280;32161;48.148;-1.554;2022-12-20T01:08:23;100516.94;;;11.79;100.00
46464;BME280;32161;48.148;-1.554;2022-12-20T01:10:58;100523.22;;;11.80;100.00
46464;BME280;32161;48.148;-1.554;2022-12-20T01:13:27;100505.94;;;11.86;100.00
46464;BME280;32161;48.148;-1.554;2022-12-20T01:15:55;100513.66;;;11.77;100.00
46464;BME280;32161;48.148;-1.554;2022-12-20T01:18:23;100505.22;;;11.79;100.00
46464;BME280;32161;48.148;-1.554;2022-12-20T01:21:00;100506.53;;;11.88;100.00
46464;BME280;32161;48.148;-1.554;2022-12-20T01:23:28;100511.66;;;11.84;100.00
46464;BME280;32161;48.148;-1.554;2022-12-20T01:25:58;100501.03;;;12.00;100.00
46464;BME280;32161;48.148;-1.554;2022-12-20T01:28:28;100502.00;;;11.93;100.00
46464;BME280;32161;48.148;-1.554;2022-12-20T01:30:55;100510.25;;;11.70;100.00
46464;BME280;32161;48.148;-1.554;2022-12-20T01:33:23;100499.66;;;11.85;100.00
46464;BME280;32161;48.148;-1.554;2022-12-20T01:36:04;100497.28;;;11.89;100.00
46464;BME280;32161;48.148;-1.554;2022-12-20T01:38:32;100486.56;;;11.99;100.00
46464;BME280;32161;48.148;-1.554;2022-12-20T01:41:00;100500.44;;;11.97;100.00
46464;BME280;32161;48.148;-1.554;2022-12-20T01:43:48;100497.63;;;12.09;100.00
46464;BME280;32161;48.148;-1.554;2022-12-20T01:46:17;100482.59;;;12.07;100.00
46464;BME280;32161;48.148;-1.554;2022-12-20T01:48:51;100472.88;;;12.11;100.00
46464;BME280;32161;48.148;-1.554;2022-12-20T01:51:23;100480.53;;;12.14;100.00
46464;BME280;32161;48.148;-1.554;2022-12-20T01:53:57;100473.53;;;12.35;100.00
46464;BME280;32161;48.148;-1.554;2022-12-20T01:56:26;100466.09;;;12.13;100.00
46464;BME280;32161;48.148;-1.554;2022-12-20T01:58:54;100463.97;;;12.15;100.00
46464;BME280;32161;48.148;-1.554;2022-12-20T02:01:23;100467.59;;;12.21;100.00
46464;BME280;32161;48.148;-1.554;2022-12-20T02:03:53;100473.53;;;12.18;100.00
46464;BME280;32161;48.148;-1.554;2022-12-20T02:06:25;100481.94;;;12.00;100.00
46464;BME280;32161;48.148;-1.554;2022-12-20T02:08:58;100486.00;;;12.14;100.00
46464;BME280;32161;48.148;-1.554;2022-12-20T02:11:59;100469.88;;;12.29;100.00
46464;BME280;32161;48.148;-1.554;2022-12-20T02:14:48;100477.25;;;12.12;100.00
46464;BME280;32161;48.148;-1.554;2022-12-20T02:17:30;100483.00;;;11.98;100.00
46464;BME280;32161;48.148;-1.554;2022-12-20T02:20:46;100469.38;;;12.49;100.00
46464;BME280;32161;48.148;-1.554;2022-12-20T02:27:34;100459.66;;;12.36;100.00
46464;BME280;32161;48.148;-1.554;2022-12-20T02:30:12;100459.94;;;12.57;100.00
46464;BME280;32161;48.148;-1.554;2022-12-20T02:32:48;100457.50;;;12.38;100.00
46464;BME280;32161;48.148;-1.554;2022-12-20T02:35:23;100466.09;;;12.47;100.00
46464;BME280;32161;48.148;-1.554;2022-12-20T02:37:53;100469.81;;;12.41;100.00
46464;BME280;32161;48.148;-1.554;2022-12-20T02:40:24;100454.84;;;12.43;100.00
46464;BME280;32161;48.148;-1.554;2022-12-20T02:42:58;100456.50;;;12.44;100.00
46464;BME280;32161;48.148;-1.554;2022-12-20T02:45:32;100450.06;;;12.51;100.00
46464;BME280;32161;48.148;-1.554;2022-12-20T02:48:05;100440.78;;;12.52;100.00
46464;BME280;32161;48.148;-1.554;2022-12-20T02:50:37;100437.41;;;12.61;100.00
46464;BME280;32161;48.148;-1.554;2022-12-20T02:53:07;100429.34;;;12.71;100.00
46464;BME280;32161;48.148;-1.554;2022-12-20T02:55:44;100435.03;;;12.48;100.00
46464;BME280;32161;48.148;-1.554;2022-12-20T02:58:20;100436.50;;;12.56;100.00
46464;BME280;32161;48.148;-1.554;2022-12-20T03:00:53;100434.59;;;12.56;100.00
46464;BME280;32161;48.148;-1.554;2022-12-20T03:03:23;100430.91;;;12.45;100.00
46464;BME280;32161;48.148;-1.554;2022-12-20T03:05:53;100423.34;;;12.53;100.00
46464;BME280;32161;48.148;-1.554;2022-12-20T03:08:22;100433.28;;;12.59;100.00
46464;BME280;32161;48.148;-1.554;2022-12-20T03:10:52;100438.13;;;12.57;100.00
46464;BME280;32161;48.148;-1.554;2022-12-20T03:13:21;100430.53;;;12.59;100.00
46464;BME280;32161;48.148;-1.554;2022-12-20T03:15:49;100422.78;;;12.51;100.00
46464;BME280;32161;48.148;-1.554;2022-12-20T03:18:18;100424.69;;;12.50;100.00
46464;BME280;32161;48.148;-1.554;2022-12-20T03:20:45;100421.38;;;12.48;100.00
46464;BME280;32161;48.148;-1.554;2022-12-20T03:23:13;100428.25;;;12.51;100.00
46464;BME280;32161;48.148;-1.554;2022-12-20T03:25:41;100429.41;;;12.55;100.00
46464;BME280;32161;48.148;-1.554;2022-12-20T03:28:08;100429.06;;;12.51;100.00
46464;BME280;32161;48.148;-1.554;2022-12-20T03:30:36;100432.84;;;12.67;100.00
46464;BME280;32161;48.148;-1.554;2022-12-20T03:33:03;100427.16;;;12.68;100.00
46464;BME280;32161;48.148;-1.554;2022-12-20T03:35:32;100433.97;;;12.71;100.00
46464;BME280;32161;48.148;-1.554;2022-12-20T03:38:00;100427.03;;;12.80;100.00
46464;BME280;32161;48.148;-1.554;2022-12-20T03:40:28;100406.16;;;12.69;100.00
46464;BME280;32161;48.148;-1.554;2022-12-20T03:42:55;100422.25;;;12.70;100.00
46464;BME280;32161;48.148;-1.554;2022-12-20T03:45:23;100439.09;;;12.67;100.00
46464;BME280;32161;48.148;-1.554;2022-12-20T03:47:51;100436.09;;;12.86;100.00
46464;BME280;32161;48.148;-1.554;2022-12-20T03:50:18;100426.00;;;12.86;100.00
46464;BME280;32161;48.148;-1.554;2022-12-20T03:52:47;100424.66;;;12.67;100.00
46464;BME280;32161;48.148;-1.554;2022-12-20T03:55:15;100433.31;;;12.81;100.00
46464;BME280;32161;48.148;-1.554;2022-12-20T03:57:43;100423.72;;;13.00;100.00
46464;BME280;32161;48.148;-1.554;2022-12-20T04:00:12;100433.28;;;13.03;100.00
46464;BME280;32161;48.148;-1.554;2022-12-20T04:02:39;100425.75;;;13.10;100.00
46464;BME280;32161;48.148;-1.554;2022-12-20T04:05:08;100440.88;;;12.95;100.00
46464;BME280;32161;48.148;-1.554;2022-12-20T04:07:35;100439.59;;;12.81;100.00
46464;BME280;32161;48.148;-1.554;2022-12-20T04:10:06;100437.09;;;12.80;100.00
46464;BME280;32161;48.148;-1.554;2022-12-20T04:12:34;100447.72;;;12.76;100.00
46464;BME280;32161;48.148;-1.554;2022-12-20T04:15:02;100445.34;;;12.85;100.00
46464;BME280;32161;48.148;-1.554;2022-12-20T04:17:30;100437.56;;;12.93;100.00
46464;BME280;32161;48.148;-1.554;2022-12-20T04:19:57;100446.84;;;12.76;100.00
46464;BME280;32161;48.148;-1.554;2022-12-20T04:22:43;100439.78;;;12.97;100.00
46464;BME280;32161;48.148;-1.554;2022-12-20T04:25:13;100437.50;;;12.88;100.00
46464;BME280;32161;48.148;-1.554;2022-12-20T04:27:41;100441.22;;;12.82;100.00
46464;BME280;32161;48.148;-1.554;2022-12-20T04:30:10;100447.88;;;12.69;100.00
46464;BME280;32161;48.148;-1.554;2022-12-20T04:32:38;100444.97;;;12.76;100.00
46464;BME280;32161;48.148;-1.554;2022-12-20T04:35:07;100442.25;;;12.76;100.00
46464;BME280;32161;48.148;-1.554;2022-12-20T04:37:35;100451.91;;;12.84;100.00
46464;BME280;32161;48.148;-1.554;2022-12-20T04:40:03;100443.66;;;13.01;100.00
46464;BME280;32161;48.148;-1.554;2022-12-20T04:42:32;100441.03;;;12.89;100.00
46464;BME280;32161;48.148;-1.554;2022-12-20T04:45:00;100456.59;;;12.88;100.00
46464;BME280;32161;48.148;-1.554;2022-12-20T04:47:29;100449.47;;;12.87;100.00
46464;BME280;32161;48.148;-1.554;2022-12-20T04:49:56;100447.88;;;12.69;100.00
46464;BME280;32161;48.148;-1.554;2022-12-20T04:52:24;100455.63;;;12.78;100.00
46464;BME280;32161;48.148;-1.554;2022-12-20T04:55:09;100453.44;;;12.80;100.00
46464;BME280;32161;48.148;-1.554;2022-12-20T04:57:38;100452.34;;;12.98;100.00
46464;BME280;32161;48.148;-1.554;2022-12-20T05:00:07;100448.13;;;12.90;100.00
46464;BME280;32161;48.148;-1.554;2022-12-20T05:02:35;100447.31;;;12.89;100.00
46464;BME280;32161;48.148;-1.554;2022-12-20T05:05:03;100449.47;;;12.87;100.00
46464;BME280;32161;48.148;-1.554;2022-12-20T05:07:31;100448.63;;;12.87;100.00
46464;BME280;32161;48.148;-1.554;2022-12-20T05:09:58;100460.47;;;12.92;100.00
46464;BME280;32161;48.148;-1.554;2022-12-20T05:12:26;100452.78;;;12.89;100.00
46464;BME280;32161;48.148;-1.554;2022-12-20T05:14:55;100451.19;;;12.93;100.00
46464;BME280;32161;48.148;-1.554;2022-12-20T05:17:22;100453.16;;;12.98;100.00
46464;BME280;32161;48.148;-1.554;2022-12-20T05:19:50;100454.09;;;12.87;100.00
46464;BME280;32161;48.148;-1.554;2022-12-20T05:22:18;100451.16;;;12.71;100.00
46464;BME280;32161;48.148;-1.554;2022-12-20T05:25:03;100436.59;;;12.83;100.00
46464;BME280;32161;48.148;-1.554;2022-12-20T05:27:48;100442.44;;;12.91;100.00
46464;BME280;32161;48.148;-1.554;2022-12-20T05:30:17;100447.19;;;12.79;100.00
46464;BME280;32161;48.148;-1.554;2022-12-20T05:32:45;100450.44;;;12.76;100.00
46464;BME280;32161;48.148;-1.554;2022-12-20T05:35:13;100447.75;;;12.81;100.00
46464;BME280;32161;48.148;-1.554;2022-12-20T05:37:41;100448.75;;;12.75;100.00
46464;BME280;32161;48.148;-1.554;2022-12-20T05:40:09;100445.47;;;12.73;100.00
46464;BME280;32161;48.148;-1.554;2022-12-20T05:42:39;100444.31;;;12.91;100.00
46464;BME280;32161;48.148;-1.554;2022-12-20T05:45:07;100439.63;;;12.86;100.00
46464;BME280;32161;48.148;-1.554;2022-12-20T05:47:37;100447.75;;;12.81;100.00
46464;BME280;32161;48.148;-1.554;2022-12-20T05:50:07;100446.69;;;12.82;100.00
46464;BME280;32161;48.148;-1.554;2022-12-20T05:52:35;100447.38;;;12.73;100.00
46464;BME280;32161;48.148;-1.554;2022-12-20T05:55:03;100446.31;;;12.57;100.00
46464;BME280;32161;48.148;-1.554;2022-12-20T05:57:31;100451.09;;;12.66;100.00
46464;BME280;32161;48.148;-1.554;2022-12-20T05:59:58;100452.19;;;12.87;100.00
46464;BME280;32161;48.148;-1.554;2022-12-20T06:02:26;100450.44;;;12.76;100.00
46464;BME280;32161;48.148;-1.554;2022-12-20T06:04:55;100435.72;;;12.99;100.00
46464;BME280;32161;48.148;-1.554;2022-12-20T06:07:24;100443.91;;;12.99;100.00
46464;BME280;32161;48.148;-1.554;2022-12-20T06:09:54;100440.91;;;12.79;100.00
46464;BME280;32161;48.148;-1.554;2022-12-20T06:12:21;100449.84;;;12.74;100.00
46464;BME280;32161;48.148;-1.554;2022-12-20T06:14:49;100449.59;;;12.76;100.00
46464;BME280;32161;48.148;-1.554;2022-12-20T06:17:17;100444.31;;;12.91;100.00
46464;BME280;32161;48.148;-1.554;2022-12-20T06:19:45;100445.28;;;12.80;100.00
46464;BME280;32161;48.148;-1.554;2022-12-20T06:22:14;100447.00;;;12.86;100.00
46464;BME280;32161;48.148;-1.554;2022-12-20T06:24:42;100444.97;;;12.98;100.00
46464;BME280;32161;48.148;-1.554;2022-12-20T06:27:09;100435.31;;;12.90;100.00
46464;BME280;32161;48.148;-1.554;2022-12-20T06:29:37;100432.16;;;12.99;100.00
46464;BME280;32161;48.148;-1.554;2022-12-20T06:32:05;100437.00;;;12.91;100.00
46464;BME280;32161;48.148;-1.554;2022-12-20T06:34:33;100435.78;;;12.82;100.00
46464;BME280;32161;48.148;-1.554;2022-12-20T06:37:01;100430.16;;;12.72;100.00
46464;BME280;32161;48.148;-1.554;2022-12-20T06:39:30;100440.53;;;12.92;100.00
46464;BME280;32161;48.148;-1.554;2022-12-20T06:41:57;100429.31;;;12.88;100.00
46464;BME280;32161;48.148;-1.554;2022-12-20T06:44:25;100440.06;;;12.78;100.00
46464;BME280;32161;48.148;-1.554;2022-12-20T06:46:53;100440.22;;;12.88;100.00
46464;BME280;32161;48.148;-1.554;2022-12-20T06:49:20;100432.03;;;12.88;100.00
46464;BME280;32161;48.148;-1.554;2022-12-20T06:51:48;100438.63;;;12.92;100.00
46464;BME280;32161;48.148;-1.554;2022-12-20T06:54:16;100440.16;;;13.05;100.00
46464;BME280;32161;48.148;-1.554;2022-12-20T06:56:45;100437.25;;;13.12;100.00
46464;BME280;32161;48.148;-1.554;2022-12-20T06:59:12;100428.78;;;13.13;100.00
46464;BME280;32161;48.148;-1.554;2022-12-20T07:01:40;100434.81;;;13.15;100.00
46464;BME280;32161;48.148;-1.554;2022-12-20T07:04:08;100427.28;;;13.01;100.00
46464;BME280;32161;48.148;-1.554;2022-12-20T07:06:35;100437.56;;;12.93;100.00
46464;BME280;32161;48.148;-1.554;2022-12-20T07:09:03;100436.09;;;13.08;100.00
46464;BME280;32161;48.148;-1.554;2022-12-20T07:11:35;100440.03;;;13.17;100.00
46464;BME280;32161;48.148;-1.554;2022-12-20T07:14:04;100440.28;;;13.15;100.00
46464;BME280;32161;48.148;-1.554;2022-12-20T07:16:32;100433.41;;;13.13;100.00
46464;BME280;32161;48.148;-1.554;2022-12-20T07:19:00;100439.16;;;13.11;100.00
46464;BME280;32161;48.148;-1.554;2022-12-20T07:21:30;100433.56;;;13.01;100.00
46464;BME280;32161;48.148;-1.554;2022-12-20T07:23:58;100433.38;;;13.08;100.00
46464;BME280;32161;48.148;-1.554;2022-12-20T07:26:25;100433.88;;;13.05;100.00
46464;BME280;32161;48.148;-1.554;2022-12-20T07:28:54;100437.69;;;13.04;100.00
46464;BME280;32161;48.148;-1.554;2022-12-20T07:31:23;100438.00;;;13.07;100.00
46464;BME280;32161;48.148;-1.554;2022-12-20T07:33:50;100433.38;;;13.08;100.00
46464;BME280;32161;48.148;-1.554;2022-12-20T07:36:18;100433.56;;;13.01;100.00
46464;BME280;32161;48.148;-1.554;2022-12-20T07:38:46;100434.19;;;13.08;100.00
46464;BME280;32161;48.148;-1.554;2022-12-20T07:41:15;100437.19;;;13.07;100.00
46464;BME280;32161;48.148;-1.554;2022-12-20T07:43:44;100436.34;;;13.06;100.00
46464;BME280;32161;48.148;-1.554;2022-12-20T07:46:13;100434.31;;;12.97;100.00
46464;BME280;32161;48.148;-1.554;2022-12-20T07:48:42;100435.16;;;12.97;100.00
46464;BME280;32161;48.148;-1.554;2022-12-20T07:51:14;100441.47;;;13.03;100.00
46464;BME280;32161;48.148;-1.554;2022-12-20T07:53:47;100440.47;;;13.09;100.00
46464;BME280;32161;48.148;-1.554;2022-12-20T07:56:17;100438.31;;;12.89;100.00
46464;BME280;32161;48.148;-1.554;2022-12-20T07:58:48;100433.09;;;13.09;100.00
46464;BME280;32161;48.148;-1.554;2022-12-20T08:01:17;100428.81;;;12.91;100.00
46464;BME280;32161;48.148;-1.554;2022-12-20T08:03:51;100430.38;;;12.87;100.00
46464;BME280;32161;48.148;-1.554;2022-12-20T08:06:19;100441.66;;;12.74;100.00
46464;BME280;32161;48.148;-1.554;2022-12-20T08:08:53;100446.13;;;12.63;100.00
46464;BME280;32161;48.148;-1.554;2022-12-20T08:11:23;100437.28;;;12.73;100.00
46464;BME280;32161;48.148;-1.554;2022-12-20T08:13:52;100429.63;;;12.92;100.00
46464;BME280;32161;48.148;-1.554;2022-12-20T08:16:20;100433.25;;;12.98;100.00
46464;BME280;32161;48.148;-1.554;2022-12-20T08:18:49;100438.19;;;13.01;100.00
46464;BME280;32161;48.148;-1.554;2022-12-20T08:21:16;100437.56;;;12.93;100.00
46464;BME280;32161;48.148;-1.554;2022-12-20T08:23:44;100450.22;;;12.83;100.00
46464;BME280;32161;48.148;-1.554;2022-12-20T08:26:12;100444.13;;;12.76;100.00
46464;BME280;32161;48.148;-1.554;2022-12-20T08:28:39;100441.72;;;12.79;100.00
46464;BME280;32161;48.148;-1.554;2022-12-20T08:31:08;100443.41;;;12.80;100.00
46464;BME280;32161;48.148;-1.554;2022-12-20T08:33:38;100444.59;;;12.89;100.00
46464;BME280;32161;48.148;-1.554;2022-12-20T08:36:11;100464.19;;;12.86;100.00
46464;BME280;32161;48.148;-1.554;2022-12-20T08:38:39;100460.91;;;12.84;100.00
46464;BME280;32161;48.148;-1.554;2022-12-20T08:41:10;100458.44;;;13.05;100.00
46464;BME280;32161;48.148;-1.554;2022-12-20T08:43:39;100461.97;;;12.83;100.00
46464;BME280;32161;48.148;-1.554;2022-12-20T08:46:10;100474.31;;;12.69;100.00
46464;BME280;32161;48.148;-1.554;2022-12-20T08:48:38;100470.94;;;12.62;100.00
46464;BME280;32161;48.148;-1.554;2022-12-20T08:51:09;100470.25;;;12.71;100.00
46464;BME280;32161;48.148;-1.554;2022-12-20T08:53:37;100468.66;;;12.92;100.00
46464;BME280;32161;48.148;-1.554;2022-12-20T08:56:08;100465.22;;;12.80;100.00
46464;BME280;32161;48.148;-1.554;2022-12-20T08:58:36;100467.53;;;12.71;100.00
46464;BME280;32161;48.148;-1.554;2022-12-20T09:01:07;100471.69;;;12.96;100.00
46464;BME280;32161;48.148;-1.554;2022-12-20T09:03:35;100466.84;;;12.81;100.00
46464;BME280;32161;48.148;-1.554;2022-12-20T09:06:09;100465.53;;;12.84;100.00
46464;BME280;32161;48.148;-1.554;2022-12-20T09:08:38;100465.44;;;12.79;100.00
46464;BME280;32161;48.148;-1.554;2022-12-20T09:11:08;100466.16;;;12.69;100.00
46464;BME280;32161;48.148;-1.554;2022-12-20T09:13:37;100471.22;;;12.82;100.00
46464;BME280;32161;48.148;-1.554;2022-12-20T09:16:06;100465.50;;;12.62;100.00
46464;BME280;32161;48.148;-1.554;2022-12-20T09:18:34;100471.00;;;12.67;100.00
46464;BME280;32161;48.148;-1.554;2022-12-20T09:21:05;100469.22;;;12.56;100.00
46464;BME280;32161;48.148;-1.554;2022-12-20T09:23:35;100463.63;;;12.45;100.00
46464;BME280;32161;48.148;-1.554;2022-12-20T09:26:06;100457.16;;;12.52;100.00
46464;BME280;32161;48.148;-1.554;2022-12-20T09:28:34;100462.78;;;12.62;100.00
46464;BME280;32161;48.148;-1.554;2022-12-20T09:31:03;100466.06;;;12.64;100.00
46464;BME280;32161;48.148;-1.554;2022-12-20T09:33:32;100468.94;;;12.74;100.00
46464;BME280;32161;48.148;-1.554;2022-12-20T09:36:01;100472.31;;;12.81;100.00
46464;BME280;32161;48.148;-1.554;2022-12-20T09:38:30;100464.63;;;12.78;100.00
46464;BME280;32161;48.148;-1.554;2022-12-20T09:41:02;100476.22;;;12.68;100.00
46464;BME280;32161;48.148;-1.554;2022-12-20T09:43:31;100476.31;;;12.57;100.00
46464;BME280;32161;48.148;-1.554;2022-12-20T09:46:01;100476.47;;;12.67;100.00
46464;BME280;32161;48.148;-1.554;2022-12-20T09:48:32;100477.13;;;12.74;100.00
46464;BME280;32161;48.148;-1.554;2022-12-20T09:51:13;100482.50;;;12.69;100.00
46464;BME280;32161;48.148;-1.554;2022-12-20T09:53:52;100481.25;;;12.77;100.00
46464;BME280;32161;48.148;-1.554;2022-12-20T09:56:29;100482.28;;;12.54;100.00
46464;BME280;32161;48.148;-1.554;2022-12-20T09:59:02;100483.44;;;12.41;100.00
46464;BME280;32161;48.148;-1.554;2022-12-20T10:01:32;100490.38;;;12.32;100.00
46464;BME280;32161;48.148;-1.554;2022-12-20T10:04:04;100482.72;;;12.45;100.00
46464;BME280;32161;48.148;-1.554;2022-12-20T10:06:45;100486.16;;;12.41;100.00
46464;BME280;32161;48.148;-1.554;2022-12-20T10:09:35;100467.50;;;12.33;100.00
46464;BME280;32161;48.148;-1.554;2022-12-20T10:12:20;100479.75;;;12.30;100.00
46464;BME280;32161;48.148;-1.554;2022-12-20T10:15:18;100470.00;;;12.34;100.00
46464;BME280;32161;48.148;-1.554;2022-12-20T10:18:10;100474.09;;;12.37;100.00
46464;BME280;32161;48.148;-1.554;2022-12-20T10:20:56;100478.16;;;12.34;100.00
46464;BME280;32161;48.148;-1.554;2022-12-20T10:23:32;100482.47;;;12.30;100.00
46464;BME280;32161;48.148;-1.554;2022-12-20T10:26:08;100483.19;;;12.42;100.00
46464;BME280;32161;48.148;-1.554;2022-12-20T10:28:37;100473.38;;;12.41;100.00
46464;BME280;32161;48.148;-1.554;2022-12-20T10:31:11;100470.38;;;12.43;100.00
46464;BME280;32161;48.148;-1.554;2022-12-20T10:33:39;100473.22;;;12.31;100.00
46464;BME280;32161;48.148;-1.554;2022-12-20T10:36:24;100473.78;;;12.33;100.00
46464;BME280;32161;48.148;-1.554;2022-12-20T10:38:54;100470.06;;;12.39;100.00
46464;BME280;32161;48.148;-1.554;2022-12-20T10:41:24;100465.00;;;12.48;100.00
46464;BME280;32161;48.148;-1.554;2022-12-20T10:44:00;100461.81;;;12.34;100.00
46464;BME280;32161;48.148;-1.554;2022-12-20T10:46:37;100454.44;;;12.52;100.00
46464;BME280;32161;48.148;-1.554;2022-12-20T10:49:31;100456.28;;;12.46;100.00
46464;BME280;32161;48.148;-1.554;2022-12-20T10:52:01;100463.28;;;12.42;100.00
46464;BME280;32161;48.148;-1.554;2022-12-20T10:54:33;100459.66;;;12.36;100.00
46464;BME280;32161;48.148;-1.554;2022-12-20T10:57:13;100454.53;;;12.40;100.00
46464;BME280;32161;48.148;-1.554;2022-12-20T10:59:50;100466.69;;;12.32;100.00
46464;BME280;32161;48.148;-1.554;2022-12-20T11:02:28;100456.28;;;12.46;100.00
46464;BME280;32161;48.148;-1.554;2022-12-20T11:04:58;100446.84;;;12.54;100.00
46464;BME280;32161;48.148;-1.554;2022-12-20T11:07:29;100443.28;;;12.53;100.00
46464;BME280;32161;48.148;-1.554;2022-12-20T11:10:00;100447.81;;;12.48;100.00
46464;BME280;32161;48.148;-1.554;2022-12-20T11:12:28;100435.34;;;12.52;100.00
46464;BME280;32161;48.148;-1.554;2022-12-20T11:15:21;100439.47;;;12.54;100.00
46464;BME280;32161;48.148;-1.554;2022-12-20T11:17:52;100440.78;;;12.52;100.00
46464;BME280;32161;48.148;-1.554;2022-12-20T11:20:34;100442.31;;;12.42;100.00
46464;BME280;32161;48.148;-1.554;2022-12-20T11:23:17;100435.13;;;12.53;100.00
46464;BME280;32161;48.148;-1.554;2022-12-20T11:26:11;100429.22;;;12.61;100.00
46464;BME280;32161;48.148;-1.554;2022-12-20T11:28:59;100436.00;;;12.59;100.00
46464;BME280;32161;48.148;-1.554;2022-12-20T11:31:43;100426.94;;;12.53;100.00
46464;BME280;32161;48.148;-1.554;2022-12-20T11:34:34;100424.44;;;12.52;100.00
46464;BME280;32161;48.148;-1.554;2022-12-20T11:37:18;100420.78;;;12.63;100.00
46464;BME280;32161;48.148;-1.554;2022-12-20T11:40:02;100418.66;;;12.65;100.00
46464;BME280;32161;48.148;-1.554;2022-12-20T11:42:44;100411.28;;;12.65;100.00
46464;BME280;32161;48.148;-1.554;2022-12-20T11:45:23;100406.88;;;12.64;100.00
46464;BME280;32161;48.148;-1.554;2022-12-20T11:48:37;100412.09;;;12.66;100.00
46464;BME280;32161;48.148;-1.554;2022-12-20T11:51:14;100404.91;;;12.60;100.00
46464;BME280;32161;48.148;-1.554;2022-12-20T11:53:53;100405.75;;;12.60;100.00
46464;BME280;32161;48.148;-1.554;2022-12-20T11:56:29;100400.59;;;12.64;100.00
46464;BME280;32161;48.148;-1.554;2022-12-20T11:59:02;100403.94;;;12.66;100.00
46464;BME280;32161;48.148;-1.554;2022-12-20T12:01:36;100405.56;;;12.67;100.00
46464;BME280;32161;48.148;-1.554;2022-12-20T12:04:13;100402.84;;;12.67;100.00
46464;BME280;32161;48.148;-1.554;2022-12-20T12:06:45;100401.53;;;12.53;100.00
46464;BME280;32161;48.148;-1.554;2022-12-20T12:09:22;100397.81;;;12.59;100.00
46464;BME280;32161;48.148;-1.554;2022-12-20T12:11:59;100388.88;;;12.63;100.00
46464;BME280;32161;48.148;-1.554;2022-12-20T12:14:43;100390.84;;;12.68;100.00
46464;BME280;32161;48.148;-1.554;2022-12-20T12:17:20;100383.75;;;12.67;100.00
46464;BME280;32161;48.148;-1.554;2022-12-20T12:19:58;100382.66;;;12.68;100.00
46464;BME280;32161;48.148;-1.554;2022-12-20T12:22:33;100367.03;;;12.80;100.00
46464;BME280;32161;48.148;-1.554;2022-12-20T12:25:12;100371.91;;;12.78;100.00
46464;BME280;32161;48.148;-1.554;2022-12-20T12:27:41;100358.44;;;12.71;100.00
46464;BME280;32161;48.148;-1.554;2022-12-20T12:30:12;100352.94;;;12.66;100.00
46464;BME280;32161;48.148;-1.554;2022-12-20T12:32:44;100348.13;;;12.74;100.00
46464;BME280;32161;48.148;-1.554;2022-12-20T12:35:46;100344.81;;;12.71;100.00
46464;BME280;32161;48.148;-1.554;2022-12-20T12:39:07;100343.47;;;12.74;100.00
46464;BME280;32161;48.148;-1.554;2022-12-20T12:44:49;100338.00;;;12.96;100.00
46464;BME280;32161;48.148;-1.554;2022-12-20T12:47:24;100338.00;;;12.96;100.00
46464;BME280;32161;48.148;-1.554;2022-12-20T12:49:55;100333.53;;;12.85;100.00
46464;BME280;32161;48.148;-1.554;2022-12-20T12:52:40;100338.97;;;12.85;100.00
46464;BME280;32161;48.148;-1.554;2022-12-20T12:55:45;100340.13;;;12.89;100.00
46464;BME280;32161;48.148;-1.554;2022-12-20T12:58:32;100345.06;;;12.92;100.00
46464;BME280;32161;48.148;-1.554;2022-12-20T13:01:04;100346.97;;;12.91;100.00
46464;BME280;32161;48.148;-1.554;2022-12-20T13:04:08;100349.06;;;12.84;100.00